Time;durP1;ratioP1;P1;durP2;ratioP2;P2;SDS_P1;SDS_P2;PMS_P1;PMS_P2;Temp;Humidity;BMP_temperature;BMP_pressure;BME280_temperature;BME280_humidity;BME280_pressure;Samples;Min_cycle;Max_cycle;Signal;HPM_P1;HPM_P2
2023/12/26 00:00:55;;;;;;;;;;;;;;;5.50;100.00;99398.16;4991998;28;19921;-89
2023/12/26 00:03:20;;;;;;;;;;;;;;;5.33;100.00;99400.38;4996939;28;20317;-90
2023/12/26 00:05:46;;;;;;;;;;;;;;;5.33;100.00;99397.75;5014380;28;20009;-84
2023/12/26 00:08:11;;;;;;;;;;;;;;;5.35;100.00;99409.13;4995170;28;19957;-83
2023/12/26 00:10:37;;;;;;;;;;;;;;;5.28;100.00;99398.75;4994521;28;19921;-86
2023/12/26 00:13:03;;;;;;;;;;;;;;;5.23;100.00;99403.28;4996283;28;20012;-87
2023/12/26 00:15:29;;;;;;;;;;;;;;;5.20;100.00;99402.50;4994433;28;20351;-93
2023/12/26 00:17:54;;;;;;;;;;;;;;;5.08;100.00;99406.31;5010437;28;19929;-88
2023/12/26 00:20:20;;;;;;;;;;;;;;;5.06;100.00;99392.38;5014234;28;20308;-91
2023/12/26 00:22:45;;;;;;;;;;;;;;;5.15;100.00;99397.34;5014707;28;19925;-93
2023/12/26 00:25:11;;;;;;;;;;;;;;;5.22;100.00;99391.03;4996154;28;20019;-92
2023/12/26 00:27:38;;;;;;;;;;;;;;;6.55;100.00;99389.75;4995892;28;19921;-88
2023/12/26 00:30:11;;;;;;;;;;;;;;;5.32;100.00;99383.78;4993908;28;20380;-90
2023/12/26 00:32:36;;;;;;;;;;;;;;;5.02;100.00;99390.72;5013936;28;19930;-87
2023/12/26 00:35:01;;;;;;;;;;;;;;;4.99;100.00;99394.28;4995657;28;20394;-81
2023/12/26 00:37:31;;;;;;;;;;;;;;;5.00;100.00;99390.75;5013776;28;20495;-88
2023/12/26 00:39:57;;;;;;;;;;;;;;;4.99;100.00;99380.28;5012744;28;20032;-83
2023/12/26 00:42:24;;;;;;;;;;;;;;;5.01;100.00;99379.38;5013783;28;20019;-86
2023/12/26 00:44:49;;;;;;;;;;;;;;;4.99;100.00;99377.66;4994356;28;19925;-87
2023/12/26 00:47:14;;;;;;;;;;;;;;;5.01;100.00;99381.09;5027975;28;19921;-85
2023/12/26 00:49:41;;;;;;;;;;;;;;;4.86;100.00;99383.22;4994825;28;20016;-86
2023/12/26 00:52:06;;;;;;;;;;;;;;;4.90;100.00;99377.00;4994249;28;20020;-86
2023/12/26 00:54:36;;;;;;;;;;;;;;;4.94;100.00;99383.03;5013681;28;20012;-89
2023/12/26 00:57:02;;;;;;;;;;;;;;;4.97;100.00;99376.84;4995080;28;20276;-88
2023/12/26 00:59:27;;;;;;;;;;;;;;;4.88;100.00;99372.69;4995542;28;19921;-86
2023/12/26 01:01:52;;;;;;;;;;;;;;;4.87;100.00;99374.47;4993279;28;19922;-83
2023/12/26 01:04:21;;;;;;;;;;;;;;;4.89;100.00;99375.28;5013413;28;20273;-86
2023/12/26 01:06:46;;;;;;;;;;;;;;;4.87;100.00;99377.09;5013457;28;19922;-89
2023/12/26 01:09:12;;;;;;;;;;;;;;;5.05;100.00;99374.88;5013242;28;19918;-83
2023/12/26 01:11:37;;;;;;;;;;;;;;;4.97;100.00;99368.97;5012774;28;19944;-87
2023/12/26 01:14:06;;;;;;;;;;;;;;;4.89;100.00;99375.28;4994874;28;19983;-92
2023/12/26 01:16:32;;;;;;;;;;;;;;;4.87;100.00;99382.34;4994504;28;19928;-92
2023/12/26 01:18:57;;;;;;;;;;;;;;;4.89;100.00;99384.94;4994094;28;19921;-88
2023/12/26 01:21:22;;;;;;;;;;;;;;;4.93;100.00;99380.44;5012789;28;19926;-87
2023/12/26 01:23:48;;;;;;;;;;;;;;;4.89;100.00;99391.03;5013093;28;20034;-87
2023/12/26 01:26:13;;;;;;;;;;;;;;;4.88;100.00;99375.31;4995220;28;19917;-88
2023/12/26 01:28:56;;;;;;;;;;;;;;;4.81;100.00;99382.50;5012696;28;19922;-88
2023/12/26 01:31:21;;;;;;;;;;;;;;;4.82;100.00;99392.09;5011550;28;19918;-89
2023/12/26 01:33:46;;;;;;;;;;;;;;;4.71;100.00;99391.53;4994913;28;19928;-88
2023/12/26 01:36:11;;;;;;;;;;;;;;;4.72;100.00;99399.34;5013499;28;19922;-89
2023/12/26 01:38:36;;;;;;;;;;;;;;;4.89;100.00;99390.19;5012564;28;19941;-87
2023/12/26 01:41:02;;;;;;;;;;;;;;;4.74;100.00;99388.81;4993811;28;19924;-86
2023/12/26 01:43:29;;;;;;;;;;;;;;;4.78;100.00;99387.81;5027141;28;19921;-90
2023/12/26 01:45:57;;;;;;;;;;;;;;;4.75;100.00;99393.16;4993004;28;20214;-88
2023/12/26 01:48:23;;;;;;;;;;;;;;;4.76;100.00;99397.50;4994476;28;19929;-88
2023/12/26 01:50:48;;;;;;;;;;;;;;;4.75;100.00;99401.03;5027068;28;20281;-86
2023/12/26 01:53:14;;;;;;;;;;;;;;;4.76;100.00;99415.88;5012442;28;20365;-87
2023/12/26 01:55:40;;;;;;;;;;;;;;;4.79;100.00;99400.06;5010498;28;20364;-84
2023/12/26 01:58:05;;;;;;;;;;;;;;;4.85;100.00;99397.28;5011848;28;19925;-85
2023/12/26 02:00:31;;;;;;;;;;;;;;;4.87;100.00;99400.72;5011427;28;19928;-90
2023/12/26 02:02:59;;;;;;;;;;;;;;;4.78;100.00;99387.81;4994258;28;19967;-91
2023/12/26 02:05:24;;;;;;;;;;;;;;;4.71;100.00;99396.78;5012641;28;20427;-89
2023/12/26 02:07:50;;;;;;;;;;;;;;;4.71;100.00;99396.78;4993792;28;19925;-86
2023/12/26 02:10:15;;;;;;;;;;;;;;;4.75;100.00;99403.66;5012751;28;19925;-89
2023/12/26 02:12:40;;;;;;;;;;;;;;;4.70;100.00;99398.50;5011581;28;19979;-87
2023/12/26 02:15:06;;;;;;;;;;;;;;;4.63;100.00;99404.81;5010607;28;19928;-89
2023/12/26 02:17:31;;;;;;;;;;;;;;;4.55;100.00;99412.03;4994163;28;19972;-90
2023/12/26 02:19:57;;;;;;;;;;;;;;;4.58;100.00;99403.19;5012616;28;19918;-91
2023/12/26 02:22:22;;;;;;;;;;;;;;;4.61;100.00;99416.25;5012364;28;20349;-88
2023/12/26 02:24:48;;;;;;;;;;;;;;;4.53;100.00;99398.94;4992601;28;19925;-88
2023/12/26 08:40:22;;;;;;;;;;;;;;;4.35;100.00;99673.06;5464343;23;19925;-84
2023/12/26 08:42:47;;;;;;;;;;;;;;;4.39;100.00;99693.97;5053525;28;20390;-82
2023/12/26 08:45:12;;;;;;;;;;;;;;;4.39;100.00;99694.88;5053443;28;19921;-83
2023/12/26 08:47:37;;;;;;;;;;;;;;;4.36;100.00;99690.53;5053370;28;19924;-83
2023/12/26 08:50:03;;;;;;;;;;;;;;;4.34;100.00;99691.44;5052859;28;19923;-84
2023/12/26 08:52:28;;;;;;;;;;;;;;;4.35;100.00;99693.19;5053449;28;20462;-84
2023/12/26 08:54:53;;;;;;;;;;;;;;;4.63;100.00;99690.03;5051979;28;19956;-83
2023/12/26 08:57:18;;;;;;;;;;;;;;;4.62;100.00;99696.19;5053186;28;19943;-83
2023/12/26 08:59:44;;;;;;;;;;;;;;;4.52;100.00;99703.38;5053315;28;20367;-84
2023/12/26 09:02:09;;;;;;;;;;;;;;;4.59;100.00;99686.59;5053109;28;20287;-84
2023/12/26 09:04:34;;;;;;;;;;;;;;;4.61;100.00;99692.69;5053151;28;19923;-83
2023/12/26 09:06:59;;;;;;;;;;;;;;;4.47;100.00;99707.84;5053004;28;20007;-84
2023/12/26 09:09:26;;;;;;;;;;;;;;;4.52;100.00;99712.09;5051658;28;19912;-83
2023/12/26 09:11:53;;;;;;;;;;;;;;;4.45;100.00;99726.25;5034114;28;19924;-83
2023/12/26 09:14:18;;;;;;;;;;;;;;;4.52;100.00;99733.09;5034718;28;19913;-83
2023/12/26 09:16:44;;;;;;;;;;;;;;;4.41;100.00;99735.06;5034990;28;19975;-84
2023/12/26 09:19:11;;;;;;;;;;;;;;;4.36;100.00;99739.53;5034965;28;20427;-84
2023/12/26 09:21:36;;;;;;;;;;;;;;;4.48;100.00;99746.28;5051499;28;20012;-86
2023/12/26 09:24:01;;;;;;;;;;;;;;;4.35;100.00;99750.91;5051282;28;20007;-85
2023/12/26 09:26:27;;;;;;;;;;;;;;;4.41;100.00;99761.28;5052529;28;19967;-86
2023/12/26 09:28:52;;;;;;;;;;;;;;;4.46;100.00;99764.69;5034820;28;19917;-86
2023/12/26 09:31:17;;;;;;;;;;;;;;;4.38;100.00;99770.97;5052751;28;19960;-86
2023/12/26 09:33:42;;;;;;;;;;;;;;;4.38;100.00;99761.34;5052675;28;19926;-83
2023/12/26 09:36:08;;;;;;;;;;;;;;;4.57;100.00;99767.13;5052195;28;19920;-87
2023/12/26 09:38:33;;;;;;;;;;;;;;;4.57;100.00;99753.16;5051606;28;19917;-86
2023/12/26 09:40:58;;;;;;;;;;;;;;;4.41;100.00;99766.53;5029718;28;19921;-84
2023/12/26 09:43:24;;;;;;;;;;;;;;;4.33;100.00;99776.31;5031626;28;19974;-86
2023/12/26 09:45:49;;;;;;;;;;;;;;;4.36;100.00;99774.47;5032492;28;19918;-86
2023/12/26 09:48:15;;;;;;;;;;;;;;;4.36;100.00;99778.88;5032412;28;19932;-85
2023/12/26 09:50:41;;;;;;;;;;;;;;;4.64;100.00;99796.75;5030998;28;19924;-85
2023/12/26 09:53:07;;;;;;;;;;;;;;;4.63;100.00;99798.50;5032409;28;20435;-84
2023/12/26 09:55:32;;;;;;;;;;;;;;;4.50;100.00;99802.22;5029900;28;20356;-86
2023/12/26 09:57:58;;;;;;;;;;;;;;;4.57;100.00;99805.63;5032204;28;19917;-85
2023/12/26 10:00:27;;;;;;;;;;;;;;;4.55;100.00;99810.91;5032201;28;19956;-85
2023/12/26 10:02:52;;;;;;;;;;;;;;;4.41;100.00;99819.00;5031468;28;20012;-86
2023/12/26 10:05:18;;;;;;;;;;;;;;;4.44;100.00;99815.47;5032017;28;20004;-86
2023/12/26 10:07:43;;;;;;;;;;;;;;;4.41;100.00;99821.63;5031944;28;20356;-87
2023/12/26 10:10:11;;;;;;;;;;;;;;;4.39;100.00;99819.91;5030806;28;20410;-86
2023/12/26 10:12:36;;;;;;;;;;;;;;;4.36;100.00;99816.47;5031389;28;19917;-85
2023/12/26 10:15:02;;;;;;;;;;;;;;;4.43;100.00;99809.34;5032084;28;20391;-86
2023/12/26 10:17:28;;;;;;;;;;;;;;;4.59;100.00;99803.84;5031986;28;20368;-86
2023/12/26 10:19:57;;;;;;;;;;;;;;;4.52;100.00;99810.97;5031801;28;20008;-85
2023/12/26 10:22:23;;;;;;;;;;;;;;;4.46;100.00;99819.78;5030742;28;20380;-87
2023/12/26 10:24:48;;;;;;;;;;;;;;;4.45;100.00;99820.69;5030745;28;19925;-87
2023/12/26 10:27:14;;;;;;;;;;;;;;;4.53;100.00;99813.56;5032152;28;19917;-86
2023/12/26 10:29:39;;;;;;;;;;;;;;;4.52;100.00;99811.81;5031953;28;19917;-85
2023/12/26 10:32:04;;;;;;;;;;;;;;;4.48;100.00;99823.28;5030707;28;20007;-86
2023/12/26 10:34:30;;;;;;;;;;;;;;;4.57;100.00;99824.00;5031809;28;19921;-87
2023/12/26 10:36:56;;;;;;;;;;;;;;;4.58;100.00;99820.47;5032001;28;19921;-85
2023/12/26 10:41:56;;;;;;;;;;;;;;;4.60;100.00;99822.19;5729881;23;20277;-83
2023/12/26 10:44:24;;;;;;;;;;;;;;;4.54;100.00;99831.00;5014063;28;19932;-86
2023/12/26 10:46:50;;;;;;;;;;;;;;;4.59;100.00;99812.56;5031136;28;20269;-86
2023/12/26 10:49:23;;;;;;;;;;;;;;;4.55;100.00;99817.00;5013811;28;19917;-86
2023/12/26 10:51:50;;;;;;;;;;;;;;;4.58;100.00;99820.47;5030977;28;20030;-85
2023/12/26 10:54:20;;;;;;;;;;;;;;;4.47;100.00;99829.41;5030358;28;19924;-86
2023/12/26 10:56:47;;;;;;;;;;;;;;;4.47;100.00;99833.78;5031781;28;19921;-86
2023/12/26 10:59:12;;;;;;;;;;;;;;;4.40;100.00;99829.53;5031948;28;20300;-86
2023/12/26 11:01:38;;;;;;;;;;;;;;;4.41;100.00;99839.16;5031274;28;19924;-91
2023/12/26 11:04:03;;;;;;;;;;;;;;;4.46;100.00;99851.28;5031802;28;19917;-89
2023/12/26 11:06:34;;;;;;;;;;;;;;;4.55;100.00;99847.66;5013894;28;20287;-86
2023/12/26 11:08:59;;;;;;;;;;;;;;;4.40;100.00;99840.03;5012603;28;19996;-89
2023/12/26 11:11:24;;;;;;;;;;;;;;;4.48;100.00;99838.13;5031529;28;20016;-91
2023/12/26 13:54:57;;;;;;;;;;;;;;;4.34;100.00;99888.19;5027319;28;20291;-86
2023/12/26 13:57:23;;;;;;;;;;;;;;;4.41;100.00;99887.22;5032359;28;19925;-90
2023/12/26 13:59:48;;;;;;;;;;;;;;;4.37;100.00;99882.91;5032098;28;19917;-85
2023/12/26 14:02:13;;;;;;;;;;;;;;;4.40;100.00;99882.84;5032419;28;19921;-84
2023/12/26 14:04:38;;;;;;;;;;;;;;;4.33;100.00;99884.72;5032150;28;19917;-85
2023/12/26 14:07:04;;;;;;;;;;;;;;;4.38;100.00;99886.41;5030998;28;19923;-84
2023/12/26 14:09:29;;;;;;;;;;;;;;;4.37;100.00;99869.78;5032087;28;19960;-84
2023/12/26 14:11:54;;;;;;;;;;;;;;;4.40;100.00;99876.75;5032223;28;20500;-82
2023/12/26 14:14:20;;;;;;;;;;;;;;;4.39;100.00;99870.66;5032004;28;20342;-86
2023/12/26 14:16:45;;;;;;;;;;;;;;;4.36;100.00;99873.31;5031994;28;20419;-84
2023/12/26 14:19:10;;;;;;;;;;;;;;;4.42;100.00;99883.72;5032095;28;19924;-88
2023/12/26 14:21:35;;;;;;;;;;;;;;;4.35;100.00;99897.81;5030748;28;20287;-85
2023/12/26 14:24:01;;;;;;;;;;;;;;;4.36;100.00;99904.81;5014036;28;19918;-84
2023/12/26 14:26:28;;;;;;;;;;;;;;;4.36;100.00;99896.94;5014001;28;19921;-85
2023/12/26 14:28:53;;;;;;;;;;;;;;;4.36;100.00;99902.19;5031929;28;19925;-83
2023/12/26 14:31:20;;;;;;;;;;;;;;;4.37;100.00;99909.13;5031964;28;19917;-83
2023/12/26 14:33:45;;;;;;;;;;;;;;;4.38;100.00;99902.16;5031084;28;19923;-84
2023/12/26 14:36:10;;;;;;;;;;;;;;;4.41;100.00;99900.34;5030719;28;20316;-80
2023/12/26 14:38:36;;;;;;;;;;;;;;;4.39;100.00;99906.50;5031743;28;20317;-85
2023/12/26 14:41:01;;;;;;;;;;;;;;;4.30;100.00;99915.38;5031878;28;19971;-83
2023/12/26 14:43:26;;;;;;;;;;;;;;;4.31;100.00;99918.00;5031909;28;19920;-83
2023/12/26 14:45:52;;;;;;;;;;;;;;;4.30;100.00;99918.00;5031727;28;20323;-84
2023/12/26 14:48:17;;;;;;;;;;;;;;;4.31;100.00;99928.47;5033228;28;19962;-87
2023/12/26 14:50:42;;;;;;;;;;;;;;;4.29;100.00;99929.38;5034408;28;20635;-84
2023/12/26 14:53:07;;;;;;;;;;;;;;;4.33;100.00;99933.72;5017463;28;20304;-82
2023/12/26 14:55:32;;;;;;;;;;;;;;;4.31;100.00;99930.25;5035653;28;19955;-83
2023/12/26 14:57:58;;;;;;;;;;;;;;;4.27;100.00;99931.16;5017375;28;19936;-83
2023/12/26 15:00:23;;;;;;;;;;;;;;;4.27;100.00;99933.78;5035385;28;20012;-83
2023/12/26 15:02:48;;;;;;;;;;;;;;;4.28;100.00;99933.78;5035630;28;19924;-84
2023/12/26 15:05:17;;;;;;;;;;;;;;;4.30;100.00;99932.00;5035266;28;19926;-84
2023/12/26 15:07:42;;;;;;;;;;;;;;;4.28;100.00;99932.91;5033825;28;19913;-85
2023/12/26 15:10:07;;;;;;;;;;;;;;;4.38;100.00;99942.38;5035350;28;19925;-83
2023/12/26 15:12:33;;;;;;;;;;;;;;;4.35;100.00;99955.53;5035152;28;19921;-84
2023/12/26 15:14:58;;;;;;;;;;;;;;;4.28;100.00;99944.25;5035079;28;19913;-85
2023/12/26 15:17:23;;;;;;;;;;;;;;;4.34;100.00;99940.66;5034764;28;19924;-83
2023/12/26 15:19:49;;;;;;;;;;;;;;;4.31;100.00;99944.22;5017022;28;20008;-83
2023/12/26 15:22:15;;;;;;;;;;;;;;;4.26;100.00;99946.06;5033734;28;19936;-83
2023/12/26 15:24:41;;;;;;;;;;;;;;;4.25;100.00;99953.94;5035321;28;19985;-82
2023/12/26 15:27:06;;;;;;;;;;;;;;;4.26;100.00;99953.03;5035165;28;19920;-84
2023/12/26 15:29:31;;;;;;;;;;;;;;;4.29;100.00;99955.63;5034957;28;19925;-90
2023/12/26 15:31:57;;;;;;;;;;;;;;;4.27;100.00;99963.50;5034711;28;20483;-84
2023/12/26 15:34:22;;;;;;;;;;;;;;;4.26;100.00;99969.66;5034920;28;20380;-85
2023/12/26 15:36:48;;;;;;;;;;;;;;;4.26;100.00;99971.41;5033486;28;19925;-82
2023/12/26 15:39:14;;;;;;;;;;;;;;;4.25;100.00;99969.69;5035080;28;19921;-86
2023/12/26 15:41:39;;;;;;;;;;;;;;;4.24;100.00;99974.03;5034915;28;19943;-85
2023/12/26 15:44:05;;;;;;;;;;;;;;;4.26;100.00;99976.66;5034590;28;19921;-84
2023/12/26 15:46:30;;;;;;;;;;;;;;;4.23;100.00;99972.31;5034654;28;19956;-89
2023/12/26 15:48:55;;;;;;;;;;;;;;;4.18;100.00;99980.25;5034478;28;20439;-85
2023/12/26 15:51:22;;;;;;;;;;;;;;;4.23;100.00;99976.69;5033369;28;19924;-83
2023/12/26 15:53:49;;;;;;;;;;;;;;;4.30;100.00;99978.34;5034207;28;19927;-84
2023/12/26 15:56:15;;;;;;;;;;;;;;;4.21;100.00;99979.31;5034420;28;19975;-84
2023/12/26 15:58:40;;;;;;;;;;;;;;;4.22;100.00;99982.84;5032576;28;19923;-84
2023/12/26 16:01:06;;;;;;;;;;;;;;;4.24;100.00;99984.53;5033402;28;19921;-86
2023/12/26 16:03:31;;;;;;;;;;;;;;;4.28;100.00;100001.13;5033507;28;19924;-83
2023/12/26 16:05:57;;;;;;;;;;;;;;;4.30;100.00;99996.72;5014868;28;20380;-83
2023/12/26 16:08:22;;;;;;;;;;;;;;;4.23;100.00;99997.66;5034299;28;19925;-84
2023/12/26 16:10:51;;;;;;;;;;;;;;;4.23;100.00;99997.66;5034151;28;19944;-84
2023/12/26 16:13:16;;;;;;;;;;;;;;;4.23;100.00;99987.19;5016262;28;19925;-84
2023/12/26 16:15:42;;;;;;;;;;;;;;;4.26;100.00;99992.38;5034169;28;19917;-85
2023/12/26 16:18:08;;;;;;;;;;;;;;;4.22;100.00;99990.72;5034215;28;19928;-85
2023/12/26 16:20:33;;;;;;;;;;;;;;;4.27;100.00;99996.75;5014635;28;19921;-85
2023/12/26 16:22:58;;;;;;;;;;;;;;;4.24;100.00;99999.41;5033957;28;20357;-85
2023/12/26 16:25:24;;;;;;;;;;;;;;;4.23;100.00;100008.16;5015862;28;19924;-83
2023/12/26 16:27:49;;;;;;;;;;;;;;;4.23;100.00;99997.66;5033843;28;19917;-82
2023/12/26 16:30:14;;;;;;;;;;;;;;;4.22;100.00;100006.44;5034391;28;20004;-86
2023/12/26 16:32:40;;;;;;;;;;;;;;;4.28;100.00;100019.50;5015675;28;19949;-85
2023/12/26 16:35:05;;;;;;;;;;;;;;;4.24;100.00;100023.03;5015747;28;19924;-85
2023/12/26 16:37:31;;;;;;;;;;;;;;;4.21;100.00;100025.69;5014201;28;19917;-86
2023/12/26 16:39:56;;;;;;;;;;;;;;;4.22;100.00;100027.44;5033823;28;19921;-84
2023/12/26 16:42:22;;;;;;;;;;;;;;;4.21;100.00;100031.78;5015494;28;19924;-85
2023/12/26 16:44:47;;;;;;;;;;;;;;;4.22;100.00;100035.31;5033611;28;20284;-90
2023/12/26 16:47:13;;;;;;;;;;;;;;;4.21;100.00;100031.78;5015622;28;20432;-86
2023/12/26 16:49:42;;;;;;;;;;;;;;;4.20;100.00;100035.31;5015357;28;19921;-85
2023/12/26 16:52:07;;;;;;;;;;;;;;;4.18;100.00;100040.59;5031517;28;19928;-89
2023/12/26 16:54:36;;;;;;;;;;;;;;;4.17;100.00;100054.56;5033440;28;19921;-86
2023/12/26 16:57:01;;;;;;;;;;;;;;;4.12;100.00;100051.16;5033160;28;20435;-89
2023/12/26 16:59:27;;;;;;;;;;;;;;;4.19;100.00;100050.16;5033390;28;20008;-88
2023/12/26 17:01:52;;;;;;;;;;;;;;;4.18;100.00;100048.44;5015121;28;19939;-88
2023/12/26 17:04:17;;;;;;;;;;;;;;;4.14;100.00;100051.13;5033119;28;19975;-80
2023/12/26 17:06:43;;;;;;;;;;;;;;;4.15;100.00;100048.50;5031840;28;19921;-86
2023/12/26 17:09:08;;;;;;;;;;;;;;;4.17;100.00;100049.31;5033077;28;19921;-86
2023/12/26 17:11:34;;;;;;;;;;;;;;;4.16;100.00;100046.72;5032655;28;19921;-84
2023/12/26 17:13:59;;;;;;;;;;;;;;;4.12;100.00;100051.16;5032865;28;19921;-85
2023/12/26 17:16:24;;;;;;;;;;;;;;;4.11;100.00;100057.28;5033021;28;19917;-85
2023/12/26 17:18:50;;;;;;;;;;;;;;;4.10;100.00;100060.81;5032904;28;19968;-86
2023/12/26 17:21:15;;;;;;;;;;;;;;;4.13;100.00;100052.00;5031341;28;20372;-86
2023/12/26 17:23:40;;;;;;;;;;;;;;;4.10;100.00;100050.31;5033148;28;19920;-90
2023/12/26 17:26:06;;;;;;;;;;;;;;;4.08;100.00;100057.31;5032729;28;20296;-83
2023/12/26 17:28:31;;;;;;;;;;;;;;;4.08;100.00;100062.56;5032788;28;19917;-85
2023/12/26 17:30:56;;;;;;;;;;;;;;;4.09;100.00;100058.19;5032960;28;19917;-85
2023/12/26 17:33:21;;;;;;;;;;;;;;;4.10;100.00;100055.56;5032958;28;19917;-86
2023/12/26 17:35:47;;;;;;;;;;;;;;;4.07;100.00;100054.69;5031731;28;20130;-86
2023/12/26 17:38:12;;;;;;;;;;;;;;;4.06;100.00;100064.34;5090642;23;19933;-86
2023/12/26 17:40:38;;;;;;;;;;;;;;;4.08;100.00;100052.06;5001684;28;19922;-85
2023/12/26 17:43:03;;;;;;;;;;;;;;;4.09;100.00;100061.69;5002858;28;20012;-85
2023/12/26 17:45:28;;;;;;;;;;;;;;;4.14;100.00;100069.50;5003575;28;19917;-89
2023/12/26 17:47:54;;;;;;;;;;;;;;;4.09;100.00;100059.06;5003223;28;19918;-84
2023/12/26 17:50:19;;;;;;;;;;;;;;;4.13;100.00;100068.63;5003119;28;19971;-91
2023/12/26 17:52:44;;;;;;;;;;;;;;;4.14;100.00;100067.72;5001843;28;19928;-89
2023/12/26 17:55:09;;;;;;;;;;;;;;;4.06;100.00;100061.72;5003747;28;20397;-90
2023/12/26 17:57:35;;;;;;;;;;;;;;;4.13;100.00;100067.75;5001112;28;20261;-90
2023/12/26 18:00:00;;;;;;;;;;;;;;;4.13;100.00;100075.59;5002665;28;19964;-85
2023/12/26 18:02:25;;;;;;;;;;;;;;;4.08;100.00;100080.91;5003508;28;20345;-88
2023/12/26 18:04:51;;;;;;;;;;;;;;;4.05;100.00;100074.84;5002487;28;20381;-86
2023/12/26 18:07:16;;;;;;;;;;;;;;;4.08;100.00;100085.28;5001229;28;19962;-86
2023/12/26 18:09:41;;;;;;;;;;;;;;;4.07;100.00;100073.06;5002943;28;19921;-89
2023/12/26 18:12:07;;;;;;;;;;;;;;;4.12;100.00;100072.13;5002257;28;19922;-86
2023/12/26 18:14:32;;;;;;;;;;;;;;;4.08;100.00;100067.78;5002204;28;20004;-84
2023/12/26 18:16:57;;;;;;;;;;;;;;;4.09;100.00;100069.53;5002317;28;20380;-87
2023/12/26 18:19:22;;;;;;;;;;;;;;;4.14;100.00;100072.97;5001729;28;20380;-84
2023/12/26 18:21:50;;;;;;;;;;;;;;;4.04;100.00;100078.34;5001044;28;20332;-84
2023/12/26 18:24:16;;;;;;;;;;;;;;;4.02;100.00;100074.88;4984558;28;19925;-86
2023/12/26 18:26:41;;;;;;;;;;;;;;;4.09;100.00;100087.91;5001249;28;19964;-85
2023/12/26 18:29:07;;;;;;;;;;;;;;;4.11;100.00;100086.13;5002346;28;19922;-81
2023/12/26 18:31:33;;;;;;;;;;;;;;;4.09;100.00;100092.28;5001842;28;20343;-83
2023/12/26 18:33:58;;;;;;;;;;;;;;;4.04;100.00;100092.34;5000899;28;19917;-84
2023/12/26 18:36:29;;;;;;;;;;;;;;;4.09;100.00;100080.03;5000890;28;19917;-84
2023/12/26 18:39:04;;;;;;;;;;;;;;;4.10;100.00;100092.28;5001587;28;19926;-85
2023/12/26 18:41:29;;;;;;;;;;;;;;;4.07;100.00;100091.41;5002401;28;20281;-85
2023/12/26 18:43:55;;;;;;;;;;;;;;;4.12;100.00;100080.00;5001887;28;19921;-84
2023/12/26 18:46:20;;;;;;;;;;;;;;;4.06;100.00;100084.44;5001517;28;19926;-85
2023/12/26 18:48:46;;;;;;;;;;;;;;;4.19;100.00;100081.63;5003999;28;19980;-82
2023/12/26 18:51:11;;;;;;;;;;;;;;;4.13;100.00;100080.84;5000561;28;19997;-83
2023/12/26 18:53:37;;;;;;;;;;;;;;;4.11;100.00;100078.25;5001985;28;19933;-83
2023/12/26 18:56:02;;;;;;;;;;;;;;;8.41;100.00;100075.66;5002359;28;20016;-83
2023/12/26 18:58:27;;;;;;;;;;;;;;;5.43;100.00;100093.03;5002715;28;20292;-81
2023/12/26 19:00:53;;;;;;;;;;;;;;;4.75;100.00;100107.19;5001789;28;20072;-82
2023/12/26 19:03:18;;;;;;;;;;;;;;;4.61;100.00;100109.13;5002416;28;19928;-85
2023/12/26 19:05:43;;;;;;;;;;;;;;;4.43;100.00;100110.22;5000994;28;20284;-85
2023/12/26 19:08:08;;;;;;;;;;;;;;;4.45;100.00;100109.34;5001896;28;19944;-83
2023/12/26 19:10:42;;;;;;;;;;;;;;;4.45;100.00;100109.34;5002414;28;19917;-82
2023/12/26 19:13:07;;;;;;;;;;;;;;;4.30;100.00;100117.38;5001288;28;20020;-82
2023/12/26 19:15:34;;;;;;;;;;;;;;;4.26;100.00;100118.28;5001128;28;20436;-85
2023/12/26 19:17:59;;;;;;;;;;;;;;;4.28;100.00;100120.03;5000284;28;19933;-81
2023/12/26 19:20:24;;;;;;;;;;;;;;;4.21;100.00;100120.97;5000603;28;20389;-84
2023/12/26 19:22:50;;;;;;;;;;;;;;;4.12;100.00;100116.72;5001157;28;19923;-86
2023/12/26 19:25:15;;;;;;;;;;;;;;;4.22;100.00;100125.34;5001883;28;20004;-81
2023/12/26 19:27:40;;;;;;;;;;;;;;;4.17;100.00;100119.28;5001331;28;19918;-83
2023/12/26 19:30:06;;;;;;;;;;;;;;;4.14;100.00;100127.19;5002024;28;20380;-89
2023/12/26 19:32:31;;;;;;;;;;;;;;;4.12;100.00;100121.97;5001972;28;19945;-87
2023/12/26 19:34:56;;;;;;;;;;;;;;;4.09;100.00;100127.25;5003567;28;19914;-84
2023/12/26 19:37:22;;;;;;;;;;;;;;;4.12;100.00;100119.34;5003733;28;19926;-83
2023/12/26 19:39:47;;;;;;;;;;;;;;;4.19;100.00;100120.13;5004331;28;19926;-83
2023/12/26 19:42:12;;;;;;;;;;;;;;;4.17;100.00;100124.53;5005096;28;19996;-85
2023/12/26 19:44:37;;;;;;;;;;;;;;;4.17;100.00;100125.41;5005221;28;19953;-85
2023/12/26 19:47:03;;;;;;;;;;;;;;;4.10;100.00;100134.22;5005157;28;20351;-82
2023/12/26 19:49:28;;;;;;;;;;;;;;;4.08;100.00;100135.97;5005228;28;19957;-85
2023/12/26 19:51:53;;;;;;;;;;;;;;;4.10;100.00;100138.59;5003865;28;19918;-83
2023/12/26 19:54:18;;;;;;;;;;;;;;;4.04;100.00;100138.66;5004386;28;20404;-83
2023/12/26 19:56:44;;;;;;;;;;;;;;;4.06;100.00;100136.91;5003197;28;20405;-83
2023/12/26 19:59:09;;;;;;;;;;;;;;;4.02;100.00;100137.81;5005672;28;19928;-85
2023/12/26 20:01:41;;;;;;;;;;;;;;;4.03;100.00;100131.69;5004419;28;20365;-86
2023/12/26 20:04:06;;;;;;;;;;;;;;;4.03;100.00;100142.19;5027030;28;20385;-85
2023/12/26 20:06:31;;;;;;;;;;;;;;;4.04;100.00;100134.28;5003617;28;19930;-86
2023/12/26 20:08:57;;;;;;;;;;;;;;;4.03;100.00;100143.03;5003960;28;19991;-84
2023/12/26 20:11:22;;;;;;;;;;;;;;;4.05;100.00;100145.63;5003580;28;19926;-86
2023/12/26 20:13:48;;;;;;;;;;;;;;;4.03;100.00;100137.78;5004119;28;19925;-86
2023/12/26 20:16:14;;;;;;;;;;;;;;;4.00;100.00;100141.34;5003962;28;20288;-85
2023/12/26 20:18:41;;;;;;;;;;;;;;;3.97;100.00;100143.97;5003324;28;19922;-85
2023/12/26 20:21:06;;;;;;;;;;;;;;;3.98;100.00;100161.44;5008890;28;19928;-82
2023/12/26 20:23:34;;;;;;;;;;;;;;;3.98;100.00;100155.34;5004679;28;19925;-86
2023/12/26 20:26:00;;;;;;;;;;;;;;;3.94;100.00;100153.59;5004114;28;19922;-87
2023/12/26 20:28:25;;;;;;;;;;;;;;;4.00;100.00;100151.81;5002838;28;19976;-86
2023/12/26 20:30:50;;;;;;;;;;;;;;;3.98;100.00;100152.72;5002589;28;19933;-85
2023/12/26 20:33:15;;;;;;;;;;;;;;;3.93;100.00;100162.38;5003812;28;20421;-84
2023/12/26 20:35:42;;;;;;;;;;;;;;;3.95;100.00;100160.59;5003405;28;20344;-86
2023/12/26 20:38:07;;;;;;;;;;;;;;;3.93;100.00;100162.38;5002338;28;19925;-85
2023/12/26 20:40:32;;;;;;;;;;;;;;;3.96;100.00;100157.09;5003883;28;19922;-85
2023/12/26 20:42:58;;;;;;;;;;;;;;;3.94;100.00;100156.22;5002741;28;20412;-82
2023/12/26 20:45:23;;;;;;;;;;;;;;;3.92;100.00;100156.25;5003323;28;20393;-83
2023/12/26 20:47:48;;;;;;;;;;;;;;;3.90;100.00;100152.78;5003718;28;20273;-90
2023/12/26 20:50:14;;;;;;;;;;;;;;;3.97;100.00;100149.22;5004064;28;19926;-85
2023/12/26 20:52:39;;;;;;;;;;;;;;;3.94;100.00;100138.78;5001511;28;19917;-85
2023/12/26 20:55:04;;;;;;;;;;;;;;;3.93;100.00;100141.41;5003668;28;19926;-88
2023/12/26 20:57:30;;;;;;;;;;;;;;;3.98;100.00;100136.97;5003757;28;19987;-81
2023/12/26 20:59:55;;;;;;;;;;;;;;;3.94;100.00;100154.50;5003220;28;20067;-86
2023/12/26 21:02:22;;;;;;;;;;;;;;;3.97;100.00;100153.59;5002995;28;20628;-81
2023/12/26 21:04:47;;;;;;;;;;;;;;;3.98;100.00;100160.56;5003158;28;20951;-85
2023/12/26 21:07:12;;;;;;;;;;;;;;;3.98;100.00;100158.81;5001486;28;20041;-83
2023/12/26 21:09:40;;;;;;;;;;;;;;;3.99;100.00;100154.47;5002907;28;19922;-86
2023/12/26 21:12:06;;;;;;;;;;;;;;;4.01;100.00;100152.69;5018186;28;20378;-84
2023/12/26 21:14:31;;;;;;;;;;;;;;;3.98;100.00;100148.31;5003916;28;20020;-84
2023/12/26 21:16:59;;;;;;;;;;;;;;;3.97;100.00;100153.59;5002910;28;19926;-86
2023/12/26 21:19:25;;;;;;;;;;;;;;;3.94;100.00;100151.88;5005289;28;19929;-87
2023/12/26 21:21:50;;;;;;;;;;;;;;;3.96;100.00;100150.09;5001658;28;19921;-86
2023/12/26 21:24:15;;;;;;;;;;;;;;;4.02;100.00;100150.91;5001768;28;19922;-87
2023/12/26 21:26:40;;;;;;;;;;;;;;;3.93;100.00;100157.13;5002741;28;19921;-84
2023/12/26 21:29:06;;;;;;;;;;;;;;;3.96;100.00;100160.59;5002066;28;20020;-84
2023/12/26 21:31:31;;;;;;;;;;;;;;;3.94;100.00;100165.00;5002851;28;19928;-87